ILUBB EDDV-EDDV

Flight info

Callsign ILUBB
Flight time N/A
Altitude 14000
Route CEL1G CEL CEL1L
Aircraft SF50/L-SDGRWY/L

Departure

Time 2026-05-01 10:41
Airport Hannover Airport (EDDV)

Arrival

Time N/A
Airport Hannover Airport (EDDV)
Time Latitude Longitude Altitude Speed Heading
2026-05-01 10:16 52.45914 9.68708 172 ft 0 kts 232°
2026-05-01 10:33 52.45932 9.68746 160 ft 2 kts 232°
2026-05-01 10:34 52.45944 9.68770 170 ft 3 kts 232°
2026-05-01 10:34 52.45955 9.68794 172 ft 3 kts 232°
2026-05-01 10:34 52.45953 9.68805 172 ft 0 kts 345°
2026-05-01 10:35 52.45958 9.68804 172 ft 6 kts 358°
2026-05-01 10:35 52.46012 9.68793 171 ft 12 kts 334°
2026-05-01 10:36 52.46200 9.68572 174 ft 17 kts 322°
2026-05-01 10:36 52.46286 9.68460 175 ft 14 kts 320°
2026-05-01 10:36 52.46353 9.68377 175 ft 11 kts 323°
2026-05-01 10:37 52.46359 9.68369 175 ft 0 kts 321°
2026-05-01 10:38 52.46513 9.68108 172 ft 25 kts 286°
2026-05-01 10:38 52.46531 9.67709 178 ft 39 kts 272°
2026-05-01 10:39 52.46544 9.67291 179 ft 34 kts 273°
2026-05-01 10:39 52.46552 9.66956 174 ft 25 kts 271°
2026-05-01 10:39 52.46576 9.66713 173 ft 19 kts 315°
2026-05-01 10:39 52.46680 9.66670 175 ft 7 kts
2026-05-01 10:40 52.46682 9.66670 175 ft 0 kts
2026-05-01 10:41 52.46698 9.66671 175 ft 20 kts
2026-05-01 10:41 52.46780 9.66871 177 ft 51 kts 94°
2026-05-01 10:41 52.46696 9.69391 1099 ft 143 kts 96°
2026-05-01 10:42 52.46630 9.71146 1953 ft 165 kts 98°
2026-05-01 10:42 52.46572 9.73107 2832 ft 178 kts 96°
2026-05-01 10:42 52.46545 9.75204 3719 ft 188 kts 94°
2026-05-01 10:42 52.46519 9.77548 4003 ft 228 kts 96°
2026-05-01 10:43 52.46417 9.80081 4006 ft 212 kts 97°
2026-05-01 10:43 52.46676 9.82382 3979 ft 212 kts 64°
2026-05-01 10:43 52.47848 9.83845 3995 ft 221 kts 20°
2026-05-01 10:43 52.49388 9.83710 3994 ft 228 kts 339°
2026-05-01 10:44 52.50501 9.81926 3985 ft 227 kts 294°
2026-05-01 10:44 52.50996 9.79524 3993 ft 224 kts 284°
2026-05-01 10:44 52.51385 9.77370 4000 ft 226 kts 284°